createdAt,value
2019-04-27T00:02:30.293Z,7.80
2019-04-27T00:05:26.682Z,7.90
2019-04-27T00:08:21.455Z,7.90
2019-04-27T00:11:20.325Z,7.90
2019-04-27T00:13:50.985Z,7.90
2019-04-27T00:16:47.048Z,7.80
2019-04-27T00:19:45.007Z,7.80
2019-04-27T00:22:37.336Z,7.90
2019-04-27T00:25:08.279Z,7.80
2019-04-27T00:27:39.186Z,7.80
2019-04-27T00:30:10.194Z,7.80
2019-04-27T00:32:41.063Z,7.80
2019-04-27T00:35:14.758Z,7.80
2019-04-27T00:37:51.047Z,7.80
2019-04-27T00:40:33.550Z,7.80
2019-04-27T00:43:04.214Z,7.80
2019-04-27T00:45:35.022Z,7.80
2019-04-27T00:48:05.754Z,7.80
2019-04-27T00:50:36.303Z,7.80
2019-04-27T00:53:06.917Z,7.80
2019-04-27T00:55:43.516Z,7.80
2019-04-27T00:58:33.004Z,7.80
2019-04-27T01:01:09.963Z,7.80
2019-04-27T01:03:55.475Z,7.70
2019-04-27T01:06:26.388Z,7.70
2019-04-27T01:08:56.917Z,7.70
2019-04-27T01:11:27.462Z,7.70
2019-04-27T01:13:58.039Z,7.70
2019-04-27T01:16:29.334Z,7.70
2019-04-27T01:19:00.163Z,7.70
2019-04-27T01:21:31.098Z,7.70
2019-04-27T01:24:01.998Z,7.60
2019-04-27T01:26:50.440Z,7.60
2019-04-27T01:29:23.153Z,7.60
2019-04-27T01:31:53.923Z,7.50
2019-04-27T01:34:24.511Z,7.50
2019-04-27T01:36:55.039Z,7.50
2019-04-27T01:39:25.610Z,7.50
2019-04-27T01:41:56.594Z,7.60
2019-04-27T01:44:27.155Z,7.50
2019-04-27T01:46:57.754Z,7.60
2019-04-27T01:49:29.491Z,7.50
2019-04-27T01:52:00.217Z,7.50
2019-04-27T01:54:30.865Z,7.50
2019-04-27T01:57:04.128Z,7.40
2019-04-27T01:59:34.027Z,7.40
2019-04-27T02:02:20.339Z,7.40
2019-04-27T02:05:09.023Z,7.40
2019-04-27T02:07:40.426Z,7.40
2019-04-27T02:10:12.841Z,7.40
2019-04-27T02:12:44.081Z,7.40
2019-04-27T02:15:15.297Z,7.40
2019-04-27T02:17:46.230Z,7.50
2019-04-27T02:20:17.270Z,7.50
2019-04-27T02:22:48.555Z,7.50
2019-04-27T02:25:21.139Z,7.50
2019-04-27T02:27:59.173Z,7.50
2019-04-27T02:30:49.800Z,7.50
2019-04-27T02:33:31.269Z,7.50
2019-04-27T02:36:01.847Z,7.50
2019-04-27T02:38:32.487Z,7.40
2019-04-27T02:41:05.034Z,7.40
2019-04-27T02:43:54.974Z,7.50
2019-04-27T02:46:25.613Z,7.50
2019-04-27T02:49:00.694Z,7.50
2019-04-27T02:51:53.240Z,7.50
2019-04-27T02:54:23.918Z,7.50
2019-04-27T02:56:54.475Z,7.40
2019-04-27T02:59:25.066Z,7.40
2019-04-27T03:02:07.135Z,7.40
2019-04-27T03:04:39.972Z,7.30
2019-04-27T03:07:11.453Z,7.40
2019-04-27T03:09:42.403Z,7.30
2019-04-27T03:12:15.112Z,7.20
2019-04-27T03:15:10.249Z,7.20
2019-04-27T03:18:00.877Z,7.20
2019-04-27T03:20:40.246Z,7.20
2019-04-27T03:23:11.838Z,7.30
2019-04-27T03:26:00.405Z,7.30
2019-04-27T03:28:31.139Z,7.30
2019-04-27T03:31:02.911Z,7.30
2019-04-27T03:33:33.770Z,7.30
2019-04-27T03:36:04.430Z,7.40
2019-04-27T03:38:35.025Z,7.40
2019-04-27T03:41:06.350Z,7.50
2019-04-27T03:43:37.124Z,7.50
2019-04-27T03:46:10.107Z,7.50
2019-04-27T03:48:40.938Z,7.60
2019-04-27T03:51:35.818Z,7.70
2019-04-27T03:54:22.173Z,7.70
2019-04-27T03:57:10.821Z,7.70
2019-04-27T04:00:19.928Z,7.70
2019-04-27T04:02:50.742Z,7.80
2019-04-27T04:05:21.284Z,7.80
2019-04-27T04:07:51.934Z,7.70
2019-04-27T04:10:24.137Z,7.80
2019-04-27T04:13:10.734Z,7.70
2019-04-27T04:16:07.340Z,7.70
2019-04-27T04:18:57.523Z,7.70
2019-04-27T04:21:29.876Z,7.60
2019-04-27T04:24:01.318Z,7.60
2019-04-27T04:26:32.849Z,7.60
2019-04-27T04:29:03.933Z,7.60
2019-04-27T04:31:35.151Z,7.60
2019-04-27T04:34:05.838Z,7.60
2019-04-27T04:36:36.648Z,7.60
2019-04-27T04:39:10.388Z,7.60
2019-04-27T04:41:59.865Z,7.60
2019-04-27T04:45:00.237Z,7.60
2019-04-27T04:47:59.611Z,7.60
2019-04-27T04:50:30.559Z,7.50
2019-04-27T04:53:01.342Z,7.50
2019-04-27T04:55:31.810Z,7.50
2019-04-27T04:58:03.344Z,7.40
2019-04-27T05:00:34.346Z,7.40
2019-04-27T05:03:05.651Z,7.40
2019-04-27T05:05:36.206Z,7.40
2019-04-27T05:08:06.807Z,7.40
2019-04-27T05:10:39.321Z,7.40
2019-04-27T05:13:09.684Z,7.30
2019-04-27T05:15:40.543Z,7.20
2019-04-27T05:18:11.172Z,7.20
2019-04-27T05:21:09.597Z,7.20
2019-04-27T05:23:40.189Z,7.30
2019-04-27T05:26:11.131Z,7.30
2019-04-27T05:28:41.691Z,7.30
2019-04-27T05:31:12.252Z,7.30
2019-04-27T05:33:42.895Z,7.30
2019-04-27T05:36:13.470Z,7.30
2019-04-27T05:38:45.939Z,7.30
2019-04-27T05:41:18.593Z,7.20
2019-04-27T05:44:07.661Z,7.20
2019-04-27T05:47:13.090Z,7.20
2019-04-27T05:49:53.504Z,7.20
2019-04-27T05:52:30.907Z,7.20
2019-04-27T05:55:01.480Z,7.20
2019-04-27T05:57:32.097Z,7.20
2019-04-27T06:00:02.905Z,7.30
2019-04-27T06:02:33.437Z,7.50
2019-04-27T06:05:04.792Z,7.60
2019-04-27T06:07:35.523Z,7.80
2019-04-27T06:10:07.195Z,7.80
2019-04-27T06:12:39.461Z,7.90
2019-04-27T06:15:12.079Z,8.00
2019-04-27T06:17:42.911Z,8.00
2019-04-27T06:20:13.814Z,8.00
2019-04-27T06:22:44.851Z,8.10
2019-04-27T06:25:15.459Z,8.20
2019-04-27T06:27:46.097Z,8.40
2019-04-27T06:30:19.137Z,8.50
2019-04-27T06:32:49.572Z,8.60
2019-04-27T06:35:20.739Z,8.80
2019-04-27T06:37:51.379Z,9.00
2019-04-27T06:40:21.944Z,9.10
2019-04-27T06:42:52.540Z,9.20
2019-04-27T06:45:23.124Z,9.20
2019-04-27T06:47:53.634Z,9.40
2019-04-27T06:50:24.206Z,9.40
2019-04-27T06:52:54.868Z,9.40
2019-04-27T06:55:25.500Z,9.60
2019-04-27T06:57:56.166Z,9.70
2019-04-27T07:00:26.714Z,9.80
2019-04-27T07:02:57.303Z,9.80
2019-04-27T07:05:28.902Z,9.90
2019-04-27T07:08:00.041Z,10.00
2019-04-27T07:10:30.577Z,10.20
2019-04-27T07:13:01.521Z,10.40
2019-04-27T07:15:32.454Z,10.50
2019-04-27T07:18:02.924Z,10.30
2019-04-27T07:20:33.563Z,10.30
2019-04-27T07:23:04.133Z,10.30
2019-04-27T07:25:34.805Z,10.30
2019-04-27T07:28:05.368Z,10.50
2019-04-27T07:30:35.983Z,10.60
2019-04-27T07:33:08.617Z,10.70
2019-04-27T07:35:39.568Z,10.70
2019-04-27T07:38:10.490Z,10.80
2019-04-27T07:40:42.032Z,10.90
2019-04-27T07:43:31.772Z,11.00
2019-04-27T07:46:02.832Z,11.00
2019-04-27T07:48:33.411Z,11.00
2019-04-27T07:51:04.271Z,11.10
2019-04-27T07:53:34.834Z,11.20
2019-04-27T07:56:05.415Z,11.10
2019-04-27T07:58:36.067Z,11.10
2019-04-27T08:01:06.849Z,11.10
2019-04-27T08:03:39.043Z,11.20
2019-04-27T08:06:10.876Z,11.30
2019-04-27T08:08:41.638Z,11.30
2019-04-27T08:11:12.306Z,11.40
2019-04-27T08:13:42.925Z,11.50
2019-04-27T08:16:13.489Z,11.70
2019-04-27T08:18:43.961Z,11.80
2019-04-27T08:21:14.621Z,11.90
2019-04-27T08:23:45.147Z,11.90
2019-04-27T08:26:30.688Z,12.00
2019-04-27T08:29:19.157Z,12.10
2019-04-27T08:31:58.538Z,12.20
2019-04-27T08:34:36.855Z,12.30
2019-04-27T08:37:09.197Z,11.90
2019-04-27T08:39:39.850Z,12.30
2019-04-27T08:42:10.489Z,12.30
2019-04-27T08:44:41.478Z,12.40
2019-04-27T08:47:11.982Z,12.50
2019-04-27T08:49:43.037Z,12.50
2019-04-27T08:52:13.880Z,12.60
2019-04-27T08:54:44.468Z,12.30
2019-04-27T08:57:15.033Z,12.20
2019-04-27T08:59:45.682Z,12.10
2019-04-27T09:02:16.260Z,12.60
2019-04-27T09:04:46.837Z,12.60
2019-04-27T09:07:41.826Z,12.70
2019-04-27T09:10:19.215Z,12.70
2019-04-27T09:13:12.322Z,12.20
2019-04-27T09:16:09.299Z,12.30
2019-04-27T09:18:41.108Z,12.40
2019-04-27T09:21:12.289Z,13.00
2019-04-27T09:23:43.243Z,12.80
2019-04-27T09:26:13.738Z,12.30
2019-04-27T09:28:44.371Z,12.30
2019-04-27T09:31:15.232Z,12.20
2019-04-27T09:33:46.190Z,12.50
2019-04-27T09:36:16.726Z,12.60
2019-04-27T09:38:47.394Z,12.40
2019-04-27T09:41:17.967Z,12.80
2019-04-27T09:43:48.487Z,13.00
2019-04-27T09:46:19.056Z,12.60
2019-04-27T09:48:49.830Z,12.40
2019-04-27T09:51:20.385Z,12.70
2019-04-27T09:53:50.987Z,12.50
2019-04-27T09:56:21.556Z,12.50
2019-04-27T09:58:52.256Z,12.50
2019-04-27T10:01:22.843Z,12.90
2019-04-27T10:03:53.850Z,13.30
2019-04-27T10:06:29.326Z,12.80
2019-04-27T10:08:57.719Z,12.90
2019-04-27T10:11:28.448Z,12.60
2019-04-27T10:13:58.933Z,12.20
2019-04-27T10:16:29.574Z,12.20
2019-04-27T10:19:00.211Z,12.00
2019-04-27T10:21:30.663Z,12.00
2019-04-27T10:24:01.224Z,12.10
2019-04-27T10:26:31.810Z,12.00
2019-04-27T10:29:02.299Z,12.00
2019-04-27T10:31:32.854Z,12.20
2019-04-27T10:34:03.615Z,12.20
2019-04-27T10:36:40.158Z,12.40
2019-04-27T10:39:13.384Z,12.00
2019-04-27T10:41:44.108Z,12.00
2019-04-27T10:44:16.364Z,12.20
2019-04-27T10:46:47.884Z,12.20
2019-04-27T10:49:18.513Z,12.10
2019-04-27T10:51:49.010Z,12.00
2019-04-27T10:54:19.659Z,12.10
2019-04-27T10:56:50.242Z,12.00
2019-04-27T10:59:21.095Z,12.00
2019-04-27T11:01:51.993Z,12.20
2019-04-27T11:04:40.342Z,12.40
2019-04-27T11:07:13.451Z,12.30
2019-04-27T11:09:44.219Z,12.20
2019-04-27T11:12:15.824Z,12.20
2019-04-27T11:14:47.016Z,12.20
2019-04-27T11:17:17.646Z,12.10
2019-04-27T11:19:48.601Z,12.10
2019-04-27T11:22:19.173Z,11.90
2019-04-27T11:24:49.883Z,11.10
2019-04-27T11:27:20.442Z,10.80
2019-04-27T11:29:51.353Z,10.60
2019-04-27T11:32:21.912Z,10.80
2019-04-27T11:35:17.647Z,11.20
2019-04-27T11:37:48.988Z,11.30
2019-04-27T11:40:20.845Z,11.30
2019-04-27T11:42:51.513Z,11.30
2019-04-27T11:45:22.182Z,11.20
2019-04-27T11:47:52.796Z,11.30
2019-04-27T11:50:23.468Z,11.40
2019-04-27T11:52:54.048Z,11.50
2019-04-27T11:55:24.617Z,11.40
2019-04-27T11:57:55.991Z,11.50
2019-04-27T12:00:27.722Z,11.60
2019-04-27T12:02:58.483Z,11.70
2019-04-27T12:05:29.040Z,11.70
2019-04-27T12:07:59.512Z,12.30
2019-04-27T12:10:30.056Z,12.00
2019-04-27T12:13:00.797Z,11.90
2019-04-27T12:15:31.359Z,11.90
2019-04-27T12:18:01.964Z,11.70
2019-04-27T12:20:32.524Z,11.60
2019-04-27T12:23:03.174Z,11.70
2019-04-27T12:25:37.076Z,11.50
2019-04-27T12:28:37.140Z,11.50
2019-04-27T12:31:16.362Z,11.40
2019-04-27T12:33:47.035Z,11.20
2019-04-27T12:36:17.906Z,11.10
2019-04-27T12:38:48.586Z,11.00
2019-04-27T12:41:19.211Z,11.00
2019-04-27T12:43:49.795Z,10.90
2019-04-27T12:46:20.401Z,10.90
2019-04-27T12:48:51.061Z,10.90
2019-04-27T12:51:22.018Z,10.70
2019-04-27T12:54:18.273Z,10.80
2019-04-27T12:57:20.895Z,10.90
2019-04-27T13:00:06.508Z,11.00
2019-04-27T13:02:37.133Z,11.10
2019-04-27T13:05:08.498Z,11.10
2019-04-27T13:07:39.079Z,11.20
2019-04-27T13:10:09.819Z,11.20
2019-04-27T13:12:40.551Z,11.10
2019-04-27T13:15:11.653Z,11.20
2019-04-27T13:17:42.347Z,11.30
2019-04-27T13:20:16.380Z,11.20
2019-04-27T13:22:47.234Z,11.30
2019-04-27T13:25:17.928Z,11.50
2019-04-27T13:27:51.020Z,11.40
2019-04-27T13:30:20.970Z,11.50
2019-04-27T13:32:51.548Z,11.40
2019-04-27T13:35:22.135Z,11.60
2019-04-27T13:37:52.983Z,11.60
2019-04-27T13:40:23.732Z,11.70
2019-04-27T13:43:03.365Z,11.90
2019-04-27T13:45:54.026Z,11.90
2019-04-27T13:48:59.375Z,12.10
2019-04-27T13:51:47.010Z,11.80
2019-04-27T13:54:25.510Z,12.10
2019-04-27T13:56:50.189Z,12.10
2019-04-27T13:59:21.838Z,12.30
2019-04-27T14:01:52.863Z,12.30
2019-04-27T14:04:24.156Z,12.20
2019-04-27T14:06:54.715Z,12.40
2019-04-27T14:09:25.281Z,12.60
2019-04-27T14:12:01.802Z,12.40
2019-04-27T14:14:32.280Z,12.30
2019-04-27T14:17:02.868Z,12.50
2019-04-27T14:19:33.749Z,12.40
2019-04-27T14:22:04.362Z,12.20
2019-04-27T14:24:41.783Z,12.00
2019-04-27T14:27:12.851Z,12.20
2019-04-27T14:29:43.497Z,12.20
2019-04-27T14:32:14.109Z,12.40
2019-04-27T14:34:44.753Z,12.30
2019-04-27T14:37:15.230Z,13.30
2019-04-27T14:39:45.739Z,13.90
2019-04-27T14:42:16.667Z,13.60
2019-04-27T14:44:48.969Z,13.30
2019-04-27T14:47:19.825Z,13.10
2019-04-27T14:49:50.430Z,13.30
2019-04-27T14:52:20.982Z,13.80
2019-04-27T14:54:51.541Z,13.50
2019-04-27T14:57:22.176Z,13.70
2019-04-27T14:59:53.022Z,13.30
2019-04-27T15:02:23.649Z,12.80
2019-04-27T15:04:54.118Z,12.70
2019-04-27T15:07:25.133Z,12.40
2019-04-27T15:09:57.504Z,12.10
2019-04-27T15:12:30.584Z,11.50
2019-04-27T15:15:01.440Z,9.70
2019-04-27T15:17:32.362Z,8.10
2019-04-27T15:20:07.414Z,7.20
2019-04-27T15:22:40.284Z,6.80
2019-04-27T15:25:15.246Z,6.60
2019-04-27T15:27:50.087Z,6.50
2019-04-27T15:30:26.627Z,6.40
2019-04-27T15:33:34.495Z,6.30
2019-04-27T15:36:10.318Z,6.20
2019-04-27T15:38:47.688Z,6.10
2019-04-27T15:41:32.390Z,6.10
2019-04-27T15:44:05.688Z,6.00
2019-04-27T15:46:35.567Z,6.00
2019-04-27T15:49:09.781Z,6.00
2019-04-27T15:51:38.665Z,6.10
2019-04-27T15:54:09.570Z,6.20
2019-04-27T15:56:40.151Z,6.20
2019-04-27T15:59:10.728Z,6.30
2019-04-27T16:01:41.364Z,6.30
2019-04-27T16:04:12.242Z,6.10
2019-04-27T16:06:47.378Z,6.00
2019-04-27T16:09:23.948Z,5.90
2019-04-27T16:11:57.788Z,5.90
2019-04-27T16:14:21.727Z,5.80
2019-04-27T16:16:52.376Z,5.70
2019-04-27T16:19:22.861Z,5.70
2019-04-27T16:21:54.392Z,5.70
2019-04-27T16:24:25.218Z,5.70
2019-04-27T16:26:56.137Z,5.50
2019-04-27T16:29:31.246Z,5.60
2019-04-27T16:32:02.688Z,5.70
2019-04-27T16:34:33.090Z,5.70
2019-04-27T16:37:04.214Z,5.80
2019-04-27T16:39:34.822Z,5.80
2019-04-27T16:42:09.689Z,5.60
2019-04-27T16:44:39.985Z,5.90
2019-04-27T16:47:12.576Z,6.00
2019-04-27T16:49:44.159Z,6.20
2019-04-27T16:52:15.904Z,6.20
2019-04-27T16:54:49.879Z,7.00
2019-04-27T16:57:19.202Z,7.20
2019-04-27T16:59:56.713Z,8.00
2019-04-27T17:02:25.079Z,8.70
2019-04-27T17:04:55.755Z,8.60
2019-04-27T17:07:30.195Z,8.40
2019-04-27T17:09:59.498Z,8.50
2019-04-27T17:12:34.870Z,8.60
2019-04-27T17:15:20.854Z,7.60
2019-04-27T17:18:20.021Z,7.40
2019-04-27T17:20:52.648Z,7.20
2019-04-27T17:23:31.216Z,6.80
2019-04-27T17:26:09.173Z,6.80
2019-04-27T17:28:40.831Z,6.80
2019-04-27T17:31:12.900Z,6.70
2019-04-27T17:33:49.942Z,6.80
2019-04-27T17:36:20.936Z,6.70
2019-04-27T17:38:51.880Z,6.70
2019-04-27T17:41:22.518Z,6.70
2019-04-27T17:43:53.074Z,6.60
2019-04-27T17:46:23.613Z,6.60
2019-04-27T17:48:54.237Z,6.60
2019-04-27T17:51:24.791Z,6.60
2019-04-27T17:53:55.412Z,6.70
2019-04-27T17:56:34.070Z,6.70
2019-04-27T17:58:58.780Z,6.60
2019-04-27T18:01:31.841Z,6.60
2019-04-27T18:04:03.032Z,6.60
2019-04-27T18:06:33.890Z,6.60
2019-04-27T18:09:08.262Z,6.60
2019-04-27T18:11:38.847Z,6.60
2019-04-27T18:14:12.995Z,6.60
2019-04-27T18:16:41.665Z,6.60
2019-04-27T18:19:23.415Z,6.70
2019-04-27T18:22:00.964Z,6.70
2019-04-27T18:24:40.126Z,6.70
2019-04-27T18:27:20.785Z,6.70
2019-04-27T18:29:51.344Z,6.70
2019-04-27T18:32:23.494Z,6.80
2019-04-27T18:34:54.307Z,6.80
2019-04-27T18:37:25.143Z,6.80
2019-04-27T18:39:55.727Z,6.90
2019-04-27T18:42:28.045Z,6.80
2019-04-27T18:45:06.281Z,6.80
2019-04-27T18:47:31.233Z,6.80
2019-04-27T18:50:19.635Z,6.80
2019-04-27T18:52:58.096Z,6.70
2019-04-27T18:55:29.044Z,6.10
2019-04-27T18:58:01.988Z,5.90
2019-04-27T19:00:31.803Z,5.60
2019-04-27T19:03:02.440Z,5.50
2019-04-27T19:05:40.056Z,5.40
2019-04-27T19:08:05.253Z,5.30
2019-04-27T19:10:35.866Z,5.20
2019-04-27T19:13:06.423Z,5.20
2019-04-27T19:15:38.215Z,5.10
2019-04-27T19:18:09.256Z,5.20
2019-04-27T19:20:39.849Z,5.20
2019-04-27T19:23:10.482Z,5.20
2019-04-27T19:25:58.534Z,5.20
2019-04-27T19:28:48.307Z,5.30
2019-04-27T19:31:24.776Z,5.30
2019-04-27T19:33:55.323Z,5.30
2019-04-27T19:36:27.940Z,5.30
2019-04-27T19:38:58.826Z,5.30
2019-04-27T19:41:29.419Z,5.30
2019-04-27T19:44:00.002Z,5.30
2019-04-27T19:46:30.689Z,5.30
2019-04-27T19:49:01.362Z,5.30
2019-04-27T19:51:31.951Z,5.30
2019-04-27T19:54:02.503Z,5.30
2019-04-27T19:56:33.092Z,5.30
2019-04-27T19:59:08.914Z,5.30
2019-04-27T20:01:43.089Z,5.30
2019-04-27T20:04:22.999Z,5.40
2019-04-27T20:06:53.595Z,5.40
2019-04-27T20:09:42.076Z,5.40
2019-04-27T20:12:13.780Z,5.40
2019-04-27T20:14:56.780Z,5.40
2019-04-27T20:17:32.439Z,5.40
2019-04-27T20:20:04.232Z,5.50
2019-04-27T20:22:35.170Z,5.50
2019-04-27T20:25:06.849Z,5.50
2019-04-27T20:27:46.026Z,5.40
2019-04-27T20:30:12.162Z,5.50
2019-04-27T20:32:42.751Z,5.50
2019-04-27T20:35:13.412Z,5.50
2019-04-27T20:37:43.964Z,5.50
2019-04-27T20:40:14.809Z,5.50
2019-04-27T20:42:45.370Z,5.50
2019-04-27T20:45:16.014Z,5.50
2019-04-27T20:47:46.807Z,5.50
2019-04-27T20:50:17.388Z,5.50
2019-04-27T20:52:56.269Z,5.40
2019-04-27T20:55:27.713Z,5.40
2019-04-27T20:58:02.420Z,5.40
2019-04-27T21:00:32.027Z,5.40
2019-04-27T21:03:24.789Z,5.40
2019-04-27T21:06:30.165Z,5.50
2019-04-27T21:09:03.038Z,5.40
2019-04-27T21:11:47.705Z,5.40
2019-04-27T21:14:18.553Z,5.40
2019-04-27T21:16:51.500Z,5.40
2019-04-27T21:19:22.233Z,5.40
2019-04-27T21:21:52.846Z,5.40
2019-04-27T21:24:23.523Z,5.50
2019-04-27T21:26:54.388Z,5.50
2019-04-27T21:29:25.477Z,5.40
2019-04-27T21:31:56.089Z,5.40
2019-04-27T21:34:26.958Z,5.40
2019-04-27T21:36:57.734Z,5.50
2019-04-27T21:39:28.623Z,5.50
2019-04-27T21:42:00.904Z,5.50
2019-04-27T21:44:32.007Z,5.50
2019-04-27T21:47:02.837Z,5.50
2019-04-27T21:49:33.395Z,5.50
2019-04-27T21:52:14.625Z,5.50
2019-04-27T21:54:46.512Z,5.50
2019-04-27T21:57:17.822Z,5.50
2019-04-27T21:59:48.382Z,5.50
2019-04-27T22:02:20.161Z,5.40
2019-04-27T22:04:51.813Z,5.40
2019-04-27T22:07:22.647Z,5.40
2019-04-27T22:09:53.493Z,5.40
2019-04-27T22:12:24.449Z,5.40
2019-04-27T22:14:55.009Z,5.50
2019-04-27T22:17:25.560Z,5.50
2019-04-27T22:19:57.572Z,5.50
2019-04-27T22:22:36.133Z,5.50
2019-04-27T22:25:09.453Z,5.50
2019-04-27T22:27:41.360Z,5.50
2019-04-27T22:30:12.388Z,5.50
2019-04-27T22:32:42.884Z,5.50
2019-04-27T22:35:13.972Z,5.50
2019-04-27T22:37:45.491Z,5.50
2019-04-27T22:40:35.865Z,5.50
2019-04-27T22:43:23.767Z,5.40
2019-04-27T22:45:54.734Z,5.50
2019-04-27T22:48:25.599Z,5.50
2019-04-27T22:50:56.157Z,5.40
2019-04-27T22:53:26.743Z,5.30
2019-04-27T22:56:18.668Z,5.30
2019-04-27T22:59:03.625Z,5.20
2019-04-27T23:01:57.866Z,5.20
2019-04-27T23:04:33.967Z,5.20
2019-04-27T23:07:04.541Z,5.20
2019-04-27T23:09:35.084Z,5.20
2019-04-27T23:12:06.447Z,5.20
2019-04-27T23:14:37.115Z,5.20
2019-04-27T23:17:27.153Z,5.30
2019-04-27T23:19:57.734Z,5.20
2019-04-27T23:22:28.339Z,5.30
2019-04-27T23:25:00.935Z,5.30
2019-04-27T23:27:31.882Z,5.30
2019-04-27T23:30:02.800Z,5.30
2019-04-27T23:32:42.644Z,5.30
2019-04-27T23:35:13.414Z,5.20
2019-04-27T23:37:43.896Z,5.20
2019-04-27T23:40:16.144Z,5.20
2019-04-27T23:42:46.725Z,5.20
2019-04-27T23:45:18.326Z,5.20
2019-04-27T23:47:50.550Z,5.10
2019-04-27T23:50:21.994Z,5.10
2019-04-27T23:53:11.836Z,5.10
2019-04-27T23:55:42.406Z,5.00
2019-04-27T23:58:13.090Z,5.00
